Petawawa Airport
CYWA : rendu visible

Aérodrome :











RETROUVEZ-NOUS SUR...

 
LOGIN :

S'inscrire | Disclaimer

   EN    FR    IT 

 









Légende :    VFR   VFR Marginal   IFR   IFR Intensif   IFR Très Intensif
Visi : 
Plafond : 
>= 8 km
>= 3000ft
5 à 8 km
1000 à 3000 ft
1500m à 5 km
500 à 1000 ft
800 à 1500m
200 à 500 ft
< 800m
< 200 ft
Symboles :   Orages  Brouillard  Fortes neiges  Fortes précipitations  Vent > 20 kt






- Altitude de l'aérodrome : 427 ft
- Code IATA : YWA


CYWA - Petawawa

DERNIER METAR :
  • 221600Z AUTO 28011G16KT 9SM BKN028 02/M05 A3002 RMK SLP175

METARs EXPIRÉS :
  • 221500Z AUTO 34002KT 9SM OVC028 M02/M07 A3003 RMK SLP177
  • 221400Z AUTO 00000KT 9SM OVC028 M08/M11 A3003 RMK SLP179

TAF TAF CYWA
Valide du 22 à 12h jusqu'au 23 à 00h UTC


221130Z 2212/2224 VRB03KT P6SM FEW020 SCT170
TEMPO 2212/2216 BKN020 OVC170
BECMG 2216/2218 25008KT RMK FCST BASED ON AUTO OBS. NXT FCST BY 221800Z



MET'MAP, la Météo Aéronautique d'un coup d'oeil ! - Copyright ORBIFLY Décembre 2007 - Disclaimer

ORBIFLY MET'MAP TEAM :

Programmation & Développement : Alexandra Zaïnal
Sur une idée originale de : Baudouin d'Aumeries
Assistance à la programmation : Marc-Olivier Méhu
Soutien technique & logistique : Manuel Goepfert

Contact : metmap@orbifly.com




SOURCES & CREDITS :

   NOAA       Earth
Advisory